sensor_id;sensor_type;location;lat;lon;timestamp;P1;durP1;ratioP1;P2;durP2;ratioP2
55210;SDS011;41082;52.822;6.666;2022-07-21T00:01:10;12.50;;;6.13;;
55210;SDS011;41082;52.822;6.666;2022-07-21T00:03:36;9.25;;;6.25;;
55210;SDS011;41082;52.822;6.666;2022-07-21T00:06:02;13.68;;;6.05;;
55210;SDS011;41082;52.822;6.666;2022-07-21T00:08:28;11.27;;;6.10;;
55210;SDS011;41082;52.822;6.666;2022-07-21T00:10:54;11.85;;;6.60;;
55210;SDS011;41082;52.822;6.666;2022-07-21T00:13:19;9.18;;;6.60;;
55210;SDS011;41082;52.822;6.666;2022-07-21T00:15:45;11.90;;;7.28;;
55210;SDS011;41082;52.822;6.666;2022-07-21T00:18:11;12.10;;;6.47;;
55210;SDS011;41082;52.822;6.666;2022-07-21T00:20:37;11.75;;;7.38;;
55210;SDS011;41082;52.822;6.666;2022-07-21T00:23:03;10.52;;;6.43;;
55210;SDS011;41082;52.822;6.666;2022-07-21T00:25:29;15.20;;;7.10;;
55210;SDS011;41082;52.822;6.666;2022-07-21T00:27:55;12.35;;;7.53;;
55210;SDS011;41082;52.822;6.666;2022-07-21T00:30:20;9.65;;;7.03;;
55210;SDS011;41082;52.822;6.666;2022-07-21T00:32:46;11.63;;;7.72;;
55210;SDS011;41082;52.822;6.666;2022-07-21T00:35:12;13.48;;;7.88;;
55210;SDS011;41082;52.822;6.666;2022-07-21T00:37:38;12.10;;;8.05;;
55210;SDS011;41082;52.822;6.666;2022-07-21T00:40:05;13.45;;;7.82;;
55210;SDS011;41082;52.822;6.666;2022-07-21T00:42:32;15.07;;;8.77;;
55210;SDS011;41082;52.822;6.666;2022-07-21T00:44:59;18.05;;;9.93;;
55210;SDS011;41082;52.822;6.666;2022-07-21T00:47:26;14.98;;;9.25;;
55210;SDS011;41082;52.822;6.666;2022-07-21T00:49:53;12.63;;;8.38;;
55210;SDS011;41082;52.822;6.666;2022-07-21T00:52:20;12.93;;;8.63;;
55210;SDS011;41082;52.822;6.666;2022-07-21T00:54:46;10.85;;;8.93;;
55210;SDS011;41082;52.822;6.666;2022-07-21T00:57:13;13.45;;;8.50;;
55210;SDS011;41082;52.822;6.666;2022-07-21T00:59:40;14.10;;;8.75;;
55210;SDS011;41082;52.822;6.666;2022-07-21T01:02:07;10.48;;;8.32;;
55210;SDS011;41082;52.822;6.666;2022-07-21T01:04:33;15.38;;;8.63;;
55210;SDS011;41082;52.822;6.666;2022-07-21T01:07:02;12.63;;;9.27;;
55210;SDS011;41082;52.822;6.666;2022-07-21T01:09:29;13.18;;;9.00;;
55210;SDS011;41082;52.822;6.666;2022-07-21T01:11:57;11.85;;;7.88;;
55210;SDS011;41082;52.822;6.666;2022-07-21T01:14:23;15.90;;;9.48;;
55210;SDS011;41082;52.822;6.666;2022-07-21T01:16:50;11.65;;;8.45;;
55210;SDS011;41082;52.822;6.666;2022-07-21T01:19:16;13.25;;;8.55;;
55210;SDS011;41082;52.822;6.666;2022-07-21T01:21:42;11.40;;;8.60;;
55210;SDS011;41082;52.822;6.666;2022-07-21T01:24:09;13.18;;;9.15;;
55210;SDS011;41082;52.822;6.666;2022-07-21T01:26:39;11.00;;;8.38;;
55210;SDS011;41082;52.822;6.666;2022-07-21T01:29:07;13.68;;;9.82;;
55210;SDS011;41082;52.822;6.666;2022-07-21T01:31:33;12.80;;;9.15;;
55210;SDS011;41082;52.822;6.666;2022-07-21T01:33:59;13.55;;;8.75;;
55210;SDS011;41082;52.822;6.666;2022-07-21T01:36:25;13.38;;;10.23;;
55210;SDS011;41082;52.822;6.666;2022-07-21T01:38:51;12.88;;;9.80;;
55210;SDS011;41082;52.822;6.666;2022-07-21T01:41:35;13.90;;;10.93;;
55210;SDS011;41082;52.822;6.666;2022-07-21T01:44:02;13.18;;;10.23;;
55210;SDS011;41082;52.822;6.666;2022-07-21T01:46:30;15.85;;;11.05;;
55210;SDS011;41082;52.822;6.666;2022-07-21T01:48:57;16.75;;;12.73;;
55210;SDS011;41082;52.822;6.666;2022-07-21T01:51:23;14.93;;;11.82;;
55210;SDS011;41082;52.822;6.666;2022-07-21T01:53:49;14.38;;;12.23;;
55210;SDS011;41082;52.822;6.666;2022-07-21T01:56:18;14.23;;;11.93;;
55210;SDS011;41082;52.822;6.666;2022-07-21T01:58:46;12.50;;;11.07;;
55210;SDS011;41082;52.822;6.666;2022-07-21T02:01:12;14.55;;;10.70;;
55210;SDS011;41082;52.822;6.666;2022-07-21T02:03:39;10.85;;;9.48;;
55210;SDS011;41082;52.822;6.666;2022-07-21T02:06:05;14.20;;;11.05;;
55210;SDS011;41082;52.822;6.666;2022-07-21T02:08:32;12.13;;;10.02;;
55210;SDS011;41082;52.822;6.666;2022-07-21T02:10:58;14.10;;;10.77;;
55210;SDS011;41082;52.822;6.666;2022-07-21T02:13:24;13.52;;;10.73;;
55210;SDS011;41082;52.822;6.666;2022-07-21T02:15:50;11.90;;;10.55;;
55210;SDS011;41082;52.822;6.666;2022-07-21T02:18:16;13.27;;;9.82;;
55210;SDS011;41082;52.822;6.666;2022-07-21T02:20:42;10.15;;;9.15;;
55210;SDS011;41082;52.822;6.666;2022-07-21T02:23:10;11.98;;;10.73;;
55210;SDS011;41082;52.822;6.666;2022-07-21T02:25:35;12.23;;;11.13;;
55210;SDS011;41082;52.822;6.666;2022-07-21T02:28:01;11.90;;;9.93;;
55210;SDS011;41082;52.822;6.666;2022-07-21T02:30:27;12.88;;;10.13;;
55210;SDS011;41082;52.822;6.666;2022-07-21T02:32:53;11.27;;;9.93;;
55210;SDS011;41082;52.822;6.666;2022-07-21T02:35:18;11.30;;;9.82;;
55210;SDS011;41082;52.822;6.666;2022-07-21T02:37:44;13.60;;;9.75;;
55210;SDS011;41082;52.822;6.666;2022-07-21T02:40:10;12.23;;;10.90;;
55210;SDS011;41082;52.822;6.666;2022-07-21T02:42:36;12.65;;;11.35;;
55210;SDS011;41082;52.822;6.666;2022-07-21T02:45:03;13.30;;;11.13;;
55210;SDS011;41082;52.822;6.666;2022-07-21T02:47:30;13.45;;;12.07;;
55210;SDS011;41082;52.822;6.666;2022-07-21T02:49:56;13.00;;;11.50;;
55210;SDS011;41082;52.822;6.666;2022-07-21T02:52:21;13.15;;;11.77;;
55210;SDS011;41082;52.822;6.666;2022-07-21T02:54:47;13.82;;;12.43;;
55210;SDS011;41082;52.822;6.666;2022-07-21T02:57:12;14.50;;;12.75;;
55210;SDS011;41082;52.822;6.666;2022-07-21T02:59:38;14.35;;;11.75;;
55210;SDS011;41082;52.822;6.666;2022-07-21T03:02:03;12.73;;;11.38;;
55210;SDS011;41082;52.822;6.666;2022-07-21T03:04:29;12.80;;;11.50;;
55210;SDS011;41082;52.822;6.666;2022-07-21T03:06:54;14.18;;;12.80;;
55210;SDS011;41082;52.822;6.666;2022-07-21T03:09:20;15.88;;;14.38;;
55210;SDS011;41082;52.822;6.666;2022-07-21T03:11:46;14.65;;;13.10;;
55210;SDS011;41082;52.822;6.666;2022-07-21T03:14:11;14.38;;;12.88;;
55210;SDS011;41082;52.822;6.666;2022-07-21T03:16:37;14.57;;;13.07;;
55210;SDS011;41082;52.822;6.666;2022-07-21T03:19:02;13.20;;;11.88;;
55210;SDS011;41082;52.822;6.666;2022-07-21T03:21:28;14.60;;;13.05;;
55210;SDS011;41082;52.822;6.666;2022-07-21T03:23:53;15.02;;;12.77;;
55210;SDS011;41082;52.822;6.666;2022-07-21T03:26:19;17.88;;;14.60;;
55210;SDS011;41082;52.822;6.666;2022-07-21T03:28:45;17.92;;;13.18;;
55210;SDS011;41082;52.822;6.666;2022-07-21T03:31:10;14.60;;;13.10;;
55210;SDS011;41082;52.822;6.666;2022-07-21T03:33:36;14.13;;;12.57;;
55210;SDS011;41082;52.822;6.666;2022-07-21T03:36:02;14.07;;;12.68;;
55210;SDS011;41082;52.822;6.666;2022-07-21T03:38:28;14.48;;;13.13;;
55210;SDS011;41082;52.822;6.666;2022-07-21T03:40:54;15.60;;;13.40;;
55210;SDS011;41082;52.822;6.666;2022-07-21T03:43:19;14.18;;;12.68;;
55210;SDS011;41082;52.822;6.666;2022-07-21T03:45:45;14.00;;;12.15;;
55210;SDS011;41082;52.822;6.666;2022-07-21T03:48:11;14.43;;;11.73;;
55210;SDS011;41082;52.822;6.666;2022-07-21T03:50:38;13.20;;;11.80;;
55210;SDS011;41082;52.822;6.666;2022-07-21T03:53:05;13.75;;;12.23;;
55210;SDS011;41082;52.822;6.666;2022-07-21T03:55:32;17.05;;;15.38;;
55210;SDS011;41082;52.822;6.666;2022-07-21T03:57:58;17.95;;;15.98;;
55210;SDS011;41082;52.822;6.666;2022-07-21T04:00:27;18.40;;;16.50;;
55210;SDS011;41082;52.822;6.666;2022-07-21T04:02:55;20.05;;;17.90;;
55210;SDS011;41082;52.822;6.666;2022-07-21T04:05:21;22.38;;;20.00;;
55210;SDS011;41082;52.822;6.666;2022-07-21T04:07:49;22.52;;;18.50;;
55210;SDS011;41082;52.822;6.666;2022-07-21T04:10:17;23.80;;;20.70;;
55210;SDS011;41082;52.822;6.666;2022-07-21T04:12:44;23.63;;;21.38;;
55210;SDS011;41082;52.822;6.666;2022-07-21T04:15:11;24.95;;;22.48;;
55210;SDS011;41082;52.822;6.666;2022-07-21T04:17:37;23.75;;;21.27;;
55210;SDS011;41082;52.822;6.666;2022-07-21T04:20:04;23.10;;;20.77;;
55210;SDS011;41082;52.822;6.666;2022-07-21T04:22:30;21.95;;;19.70;;
55210;SDS011;41082;52.822;6.666;2022-07-21T04:24:56;24.75;;;22.15;;
55210;SDS011;41082;52.822;6.666;2022-07-21T04:27:21;22.77;;;20.40;;
55210;SDS011;41082;52.822;6.666;2022-07-21T04:29:47;23.75;;;21.33;;
55210;SDS011;41082;52.822;6.666;2022-07-21T04:32:13;19.60;;;17.73;;
55210;SDS011;41082;52.822;6.666;2022-07-21T04:34:38;21.23;;;19.23;;
55210;SDS011;41082;52.822;6.666;2022-07-21T04:37:04;22.05;;;19.73;;
55210;SDS011;41082;52.822;6.666;2022-07-21T04:39:30;20.90;;;18.63;;
55210;SDS011;41082;52.822;6.666;2022-07-21T04:41:56;22.27;;;19.98;;
55210;SDS011;41082;52.822;6.666;2022-07-21T04:44:21;23.75;;;21.33;;
55210;SDS011;41082;52.822;6.666;2022-07-21T04:46:47;23.10;;;20.58;;
55210;SDS011;41082;52.822;6.666;2022-07-21T04:49:12;22.73;;;20.42;;
55210;SDS011;41082;52.822;6.666;2022-07-21T04:51:38;25.83;;;19.42;;
55210;SDS011;41082;52.822;6.666;2022-07-21T04:54:05;22.70;;;19.88;;
55210;SDS011;41082;52.822;6.666;2022-07-21T04:56:31;20.67;;;18.58;;
55210;SDS011;41082;52.822;6.666;2022-07-21T04:58:58;20.42;;;18.38;;
55210;SDS011;41082;52.822;6.666;2022-07-21T05:01:24;20.40;;;18.33;;
55210;SDS011;41082;52.822;6.666;2022-07-21T05:03:49;20.98;;;18.92;;
55210;SDS011;41082;52.822;6.666;2022-07-21T05:06:15;21.90;;;19.77;;
55210;SDS011;41082;52.822;6.666;2022-07-21T05:08:40;21.17;;;18.92;;
55210;SDS011;41082;52.822;6.666;2022-07-21T05:11:06;21.40;;;19.27;;
55210;SDS011;41082;52.822;6.666;2022-07-21T05:13:32;22.55;;;20.25;;
55210;SDS011;41082;52.822;6.666;2022-07-21T05:15:57;20.65;;;18.70;;
55210;SDS011;41082;52.822;6.666;2022-07-21T05:18:23;23.80;;;21.65;;
55210;SDS011;41082;52.822;6.666;2022-07-21T05:20:48;22.52;;;20.33;;
55210;SDS011;41082;52.822;6.666;2022-07-21T05:23:14;22.73;;;20.40;;
55210;SDS011;41082;52.822;6.666;2022-07-21T05:25:39;23.13;;;20.88;;
55210;SDS011;41082;52.822;6.666;2022-07-21T05:28:05;25.80;;;23.35;;
55210;SDS011;41082;52.822;6.666;2022-07-21T05:30:32;25.48;;;22.90;;
55210;SDS011;41082;52.822;6.666;2022-07-21T05:32:58;26.92;;;24.10;;
55210;SDS011;41082;52.822;6.666;2022-07-21T05:35:23;25.58;;;23.05;;
55210;SDS011;41082;52.822;6.666;2022-07-21T05:37:49;25.13;;;22.55;;
55210;SDS011;41082;52.822;6.666;2022-07-21T05:40:14;24.50;;;22.00;;
55210;SDS011;41082;52.822;6.666;2022-07-21T05:42:40;24.25;;;21.77;;
55210;SDS011;41082;52.822;6.666;2022-07-21T05:45:06;24.45;;;22.13;;
55210;SDS011;41082;52.822;6.666;2022-07-21T05:47:32;24.85;;;22.38;;
55210;SDS011;41082;52.822;6.666;2022-07-21T05:49:58;24.15;;;21.70;;
55210;SDS011;41082;52.822;6.666;2022-07-21T05:52:24;22.60;;;20.38;;
55210;SDS011;41082;52.822;6.666;2022-07-21T05:54:50;23.15;;;20.95;;
55210;SDS011;41082;52.822;6.666;2022-07-21T05:57:16;21.60;;;19.40;;
55210;SDS011;41082;52.822;6.666;2022-07-21T05:59:43;22.90;;;20.55;;
55210;SDS011;41082;52.822;6.666;2022-07-21T06:02:09;23.05;;;20.55;;
55210;SDS011;41082;52.822;6.666;2022-07-21T06:04:34;21.40;;;19.17;;
55210;SDS011;41082;52.822;6.666;2022-07-21T06:07:00;21.75;;;19.55;;
55210;SDS011;41082;52.822;6.666;2022-07-21T06:09:26;22.55;;;20.15;;
55210;SDS011;41082;52.822;6.666;2022-07-21T06:11:51;21.95;;;19.85;;
55210;SDS011;41082;52.822;6.666;2022-07-21T06:14:18;21.15;;;18.90;;
55210;SDS011;41082;52.822;6.666;2022-07-21T06:16:43;22.98;;;20.55;;
55210;SDS011;41082;52.822;6.666;2022-07-21T06:19:09;20.80;;;18.83;;
55210;SDS011;41082;52.822;6.666;2022-07-21T06:21:35;21.50;;;19.33;;
55210;SDS011;41082;52.822;6.666;2022-07-21T06:24:01;21.88;;;18.52;;
55210;SDS011;41082;52.822;6.666;2022-07-21T06:26:27;22.45;;;20.23;;
55210;SDS011;41082;52.822;6.666;2022-07-21T06:28:54;21.00;;;19.00;;
55210;SDS011;41082;52.822;6.666;2022-07-21T06:31:19;19.73;;;17.83;;
55210;SDS011;41082;52.822;6.666;2022-07-21T06:33:45;22.17;;;19.95;;
55210;SDS011;41082;52.822;6.666;2022-07-21T06:36:11;22.05;;;19.77;;
55210;SDS011;41082;52.822;6.666;2022-07-21T06:38:36;22.40;;;20.10;;
55210;SDS011;41082;52.822;6.666;2022-07-21T06:41:03;22.00;;;19.65;;
55210;SDS011;41082;52.822;6.666;2022-07-21T06:46:04;23.23;;;20.77;;
55210;SDS011;41082;52.822;6.666;2022-07-21T06:48:30;23.13;;;20.63;;
55210;SDS011;41082;52.822;6.666;2022-07-21T06:50:56;22.38;;;19.95;;
55210;SDS011;41082;52.822;6.666;2022-07-21T06:53:22;24.45;;;20.92;;
55210;SDS011;41082;52.822;6.666;2022-07-21T06:55:49;21.27;;;19.15;;
55210;SDS011;41082;52.822;6.666;2022-07-21T06:58:17;21.50;;;19.20;;
55210;SDS011;41082;52.822;6.666;2022-07-21T07:00:47;21.52;;;19.60;;
55210;SDS011;41082;52.822;6.666;2022-07-21T07:03:14;21.67;;;19.55;;
55210;SDS011;41082;52.822;6.666;2022-07-21T07:05:41;21.73;;;19.65;;
55210;SDS011;41082;52.822;6.666;2022-07-21T07:08:07;19.00;;;17.17;;
55210;SDS011;41082;52.822;6.666;2022-07-21T07:10:33;21.02;;;18.60;;
55210;SDS011;41082;52.822;6.666;2022-07-21T07:12:59;23.08;;;20.67;;
55210;SDS011;41082;52.822;6.666;2022-07-21T07:15:26;24.25;;;22.00;;
55210;SDS011;41082;52.822;6.666;2022-07-21T07:17:52;23.00;;;20.75;;
55210;SDS011;41082;52.822;6.666;2022-07-21T07:20:18;22.85;;;20.55;;
55210;SDS011;41082;52.822;6.666;2022-07-21T07:22:43;23.77;;;21.38;;
55210;SDS011;41082;52.822;6.666;2022-07-21T07:25:10;22.90;;;20.75;;
55210;SDS011;41082;52.822;6.666;2022-07-21T07:27:35;25.25;;;22.85;;
55210;SDS011;41082;52.822;6.666;2022-07-21T07:30:01;26.65;;;24.15;;
55210;SDS011;41082;52.822;6.666;2022-07-21T07:32:28;28.60;;;25.67;;
55210;SDS011;41082;52.822;6.666;2022-07-21T07:34:53;27.25;;;24.65;;
55210;SDS011;41082;52.822;6.666;2022-07-21T07:37:19;26.77;;;24.08;;
55210;SDS011;41082;52.822;6.666;2022-07-21T07:39:45;30.58;;;27.50;;
55210;SDS011;41082;52.822;6.666;2022-07-21T07:42:10;28.65;;;25.85;;
55210;SDS011;41082;52.822;6.666;2022-07-21T07:44:36;30.90;;;27.65;;
55210;SDS011;41082;52.822;6.666;2022-07-21T07:47:02;30.30;;;27.30;;
55210;SDS011;41082;52.822;6.666;2022-07-21T07:49:31;29.13;;;26.42;;
55210;SDS011;41082;52.822;6.666;2022-07-21T07:51:57;24.77;;;22.38;;
55210;SDS011;41082;52.822;6.666;2022-07-21T07:54:23;29.30;;;26.33;;
55210;SDS011;41082;52.822;6.666;2022-07-21T07:56:49;29.17;;;26.40;;
55210;SDS011;41082;52.822;6.666;2022-07-21T07:59:14;28.10;;;25.40;;
55210;SDS011;41082;52.822;6.666;2022-07-21T08:01:40;26.45;;;23.85;;
55210;SDS011;41082;52.822;6.666;2022-07-21T08:04:06;27.83;;;25.00;;
55210;SDS011;41082;52.822;6.666;2022-07-21T08:06:31;27.23;;;24.38;;
55210;SDS011;41082;52.822;6.666;2022-07-21T08:08:57;26.23;;;23.65;;
55210;SDS011;41082;52.822;6.666;2022-07-21T08:11:23;27.92;;;25.10;;
55210;SDS011;41082;52.822;6.666;2022-07-21T08:13:50;27.65;;;24.95;;
55210;SDS011;41082;52.822;6.666;2022-07-21T08:16:16;26.73;;;24.13;;
55210;SDS011;41082;52.822;6.666;2022-07-21T08:18:42;28.75;;;25.73;;
55210;SDS011;41082;52.822;6.666;2022-07-21T08:21:08;28.73;;;25.80;;
55210;SDS011;41082;52.822;6.666;2022-07-21T08:23:35;26.00;;;23.50;;
55210;SDS011;41082;52.822;6.666;2022-07-21T08:26:01;26.20;;;23.48;;
55210;SDS011;41082;52.822;6.666;2022-07-21T08:28:27;27.60;;;25.00;;
55210;SDS011;41082;52.822;6.666;2022-07-21T08:30:53;27.50;;;24.90;;
55210;SDS011;41082;52.822;6.666;2022-07-21T08:33:18;26.80;;;24.15;;
55210;SDS011;41082;52.822;6.666;2022-07-21T08:35:44;29.30;;;26.25;;
55210;SDS011;41082;52.822;6.666;2022-07-21T08:38:10;29.00;;;26.10;;
55210;SDS011;41082;52.822;6.666;2022-07-21T08:40:38;28.88;;;25.98;;
55210;SDS011;41082;52.822;6.666;2022-07-21T08:43:06;31.20;;;25.20;;
55210;SDS011;41082;52.822;6.666;2022-07-21T08:45:33;27.85;;;25.08;;
55210;SDS011;41082;52.822;6.666;2022-07-21T08:48:00;25.77;;;23.35;;
55210;SDS011;41082;52.822;6.666;2022-07-21T08:50:27;25.55;;;23.02;;
55210;SDS011;41082;52.822;6.666;2022-07-21T08:52:56;23.40;;;21.13;;
55210;SDS011;41082;52.822;6.666;2022-07-21T08:55:22;22.77;;;20.58;;
55210;SDS011;41082;52.822;6.666;2022-07-21T08:57:49;23.80;;;21.42;;
55210;SDS011;41082;52.822;6.666;2022-07-21T09:00:14;25.05;;;22.55;;
55210;SDS011;41082;52.822;6.666;2022-07-21T09:02:40;24.35;;;21.95;;
55210;SDS011;41082;52.822;6.666;2022-07-21T09:05:06;21.85;;;19.70;;
55210;SDS011;41082;52.822;6.666;2022-07-21T09:10:32;20.70;;;18.60;;
55210;SDS011;41082;52.822;6.666;2022-07-21T09:13:03;20.30;;;18.38;;
55210;SDS011;41082;52.822;6.666;2022-07-21T09:15:32;22.30;;;20.10;;
55210;SDS011;41082;52.822;6.666;2022-07-21T09:18:05;19.45;;;17.60;;
55210;SDS011;41082;52.822;6.666;2022-07-21T09:20:36;20.88;;;18.83;;
55210;SDS011;41082;52.822;6.666;2022-07-21T09:23:13;20.42;;;18.40;;
55210;SDS011;41082;52.822;6.666;2022-07-21T09:28:29;23.52;;;21.05;;
55210;SDS011;41082;52.822;6.666;2022-07-21T09:31:05;22.45;;;20.25;;
55210;SDS011;41082;52.822;6.666;2022-07-21T09:33:38;24.70;;;21.40;;
55210;SDS011;41082;52.822;6.666;2022-07-21T09:36:18;22.15;;;20.02;;
55210;SDS011;41082;52.822;6.666;2022-07-21T09:38:54;22.52;;;20.38;;
55210;SDS011;41082;52.822;6.666;2022-07-21T09:41:21;20.48;;;18.48;;
55210;SDS011;41082;52.822;6.666;2022-07-21T09:43:51;21.13;;;19.02;;
55210;SDS011;41082;52.822;6.666;2022-07-21T09:46:19;20.10;;;18.20;;
55210;SDS011;41082;52.822;6.666;2022-07-21T09:48:55;20.77;;;18.80;;
55210;SDS011;41082;52.822;6.666;2022-07-21T09:51:30;20.90;;;18.90;;
55210;SDS011;41082;52.822;6.666;2022-07-21T09:54:02;23.40;;;20.92;;
55210;SDS011;41082;52.822;6.666;2022-07-21T09:56:31;23.10;;;20.70;;
55210;SDS011;41082;52.822;6.666;2022-07-21T09:58:58;23.63;;;21.23;;
55210;SDS011;41082;52.822;6.666;2022-07-21T10:01:25;23.52;;;21.23;;
55210;SDS011;41082;52.822;6.666;2022-07-21T10:03:52;24.80;;;22.15;;
55210;SDS011;41082;52.822;6.666;2022-07-21T10:06:20;24.88;;;22.35;;
55210;SDS011;41082;52.822;6.666;2022-07-21T10:08:48;24.40;;;21.83;;
55210;SDS011;41082;52.822;6.666;2022-07-21T10:11:14;25.88;;;23.23;;
55210;SDS011;41082;52.822;6.666;2022-07-21T10:13:40;25.05;;;22.58;;
55210;SDS011;41082;52.822;6.666;2022-07-21T10:16:07;26.10;;;23.42;;
55210;SDS011;41082;52.822;6.666;2022-07-21T10:18:39;27.52;;;24.80;;
55210;SDS011;41082;52.822;6.666;2022-07-21T10:21:39;26.08;;;23.40;;
55210;SDS011;41082;52.822;6.666;2022-07-21T10:24:20;28.40;;;24.93;;
55210;SDS011;41082;52.822;6.666;2022-07-21T10:32:13;27.15;;;24.52;;
55210;SDS011;41082;52.822;6.666;2022-07-21T10:34:39;26.48;;;23.67;;
55210;SDS011;41082;52.822;6.666;2022-07-21T10:37:05;25.35;;;22.70;;
55210;SDS011;41082;52.822;6.666;2022-07-21T10:39:31;26.20;;;23.60;;
55210;SDS011;41082;52.822;6.666;2022-07-21T10:42:02;28.73;;;24.38;;
55210;SDS011;41082;52.822;6.666;2022-07-21T10:44:42;25.60;;;22.38;;
55210;SDS011;41082;52.822;6.666;2022-07-21T10:47:21;27.70;;;24.80;;
55210;SDS011;41082;52.822;6.666;2022-07-21T10:49:51;25.77;;;23.08;;
55210;SDS011;41082;52.822;6.666;2022-07-21T10:57:40;26.95;;;24.17;;
55210;SDS011;41082;52.822;6.666;2022-07-21T11:02:48;25.55;;;22.88;;
55210;SDS011;41082;52.822;6.666;2022-07-21T11:05:20;27.75;;;24.95;;
55210;SDS011;41082;52.822;6.666;2022-07-21T11:10:47;29.73;;;26.65;;
55210;SDS011;41082;52.822;6.666;2022-07-21T11:13:14;26.80;;;24.00;;
55210;SDS011;41082;52.822;6.666;2022-07-21T11:15:54;27.38;;;24.63;;
55210;SDS011;41082;52.822;6.666;2022-07-21T11:18:25;24.77;;;22.33;;
55210;SDS011;41082;52.822;6.666;2022-07-21T11:21:00;25.75;;;23.05;;
55210;SDS011;41082;52.822;6.666;2022-07-21T11:23:44;15.90;;;14.18;;
55210;SDS011;41082;52.822;6.666;2022-07-21T11:26:18;14.93;;;11.02;;
55210;SDS011;41082;52.822;6.666;2022-07-21T11:28:53;21.92;;;12.00;;
55210;SDS011;41082;52.822;6.666;2022-07-21T11:31:31;17.70;;;12.73;;
55210;SDS011;41082;52.822;6.666;2022-07-21T11:34:09;16.48;;;14.57;;
55210;SDS011;41082;52.822;6.666;2022-07-21T11:36:35;19.75;;;14.05;;
55210;SDS011;41082;52.822;6.666;2022-07-21T11:39:02;17.75;;;14.35;;
55210;SDS011;41082;52.822;6.666;2022-07-21T11:41:30;16.48;;;14.30;;
55210;SDS011;41082;52.822;6.666;2022-07-21T11:43:57;16.05;;;14.52;;
55210;SDS011;41082;52.822;6.666;2022-07-21T11:46:23;17.38;;;15.68;;
55210;SDS011;41082;52.822;6.666;2022-07-21T11:48:59;18.42;;;16.55;;
55210;SDS011;41082;52.822;6.666;2022-07-21T11:51:26;21.55;;;18.35;;
55210;SDS011;41082;52.822;6.666;2022-07-21T11:53:52;23.85;;;21.63;;
55210;SDS011;41082;52.822;6.666;2022-07-21T11:56:17;25.08;;;22.65;;
55210;SDS011;41082;52.822;6.666;2022-07-21T11:58:43;26.17;;;23.42;;
55210;SDS011;41082;52.822;6.666;2022-07-21T12:01:09;28.55;;;25.50;;
55210;SDS011;41082;52.822;6.666;2022-07-21T12:03:46;28.88;;;25.63;;
55210;SDS011;41082;52.822;6.666;2022-07-21T12:06:13;28.77;;;25.75;;
55210;SDS011;41082;52.822;6.666;2022-07-21T12:08:39;30.88;;;27.45;;
55210;SDS011;41082;52.822;6.666;2022-07-21T12:11:07;28.23;;;25.38;;
55210;SDS011;41082;52.822;6.666;2022-07-21T12:13:55;34.00;;;29.33;;
55210;SDS011;41082;52.822;6.666;2022-07-21T12:16:23;32.53;;;29.27;;
55210;SDS011;41082;52.822;6.666;2022-07-21T12:18:49;29.55;;;26.55;;
55210;SDS011;41082;52.822;6.666;2022-07-21T12:21:39;24.70;;;22.15;;
55210;SDS011;41082;52.822;6.666;2022-07-21T12:24:17;19.90;;;17.92;;
55210;SDS011;41082;52.822;6.666;2022-07-21T12:26:44;18.83;;;16.85;;
55210;SDS011;41082;52.822;6.666;2022-07-21T12:29:23;18.95;;;17.15;;
55210;SDS011;41082;52.822;6.666;2022-07-21T12:31:53;17.95;;;16.15;;
55210;SDS011;41082;52.822;6.666;2022-07-21T12:34:19;17.45;;;15.65;;
55210;SDS011;41082;52.822;6.666;2022-07-21T12:36:45;16.55;;;14.77;;
55210;SDS011;41082;52.822;6.666;2022-07-21T12:39:15;15.80;;;14.40;;
55210;SDS011;41082;52.822;6.666;2022-07-21T12:42:00;16.35;;;14.75;;
55210;SDS011;41082;52.822;6.666;2022-07-21T12:44:26;16.73;;;15.02;;
55210;SDS011;41082;52.822;6.666;2022-07-21T12:46:52;16.52;;;14.93;;
55210;SDS011;41082;52.822;6.666;2022-07-21T12:49:18;15.85;;;14.25;;
55210;SDS011;41082;52.822;6.666;2022-07-21T12:51:54;10.13;;;9.13;;
55210;SDS011;41082;52.822;6.666;2022-07-21T12:54:21;9.95;;;9.05;;
55210;SDS011;41082;52.822;6.666;2022-07-21T12:56:46;9.65;;;8.50;;
55210;SDS011;41082;52.822;6.666;2022-07-21T12:59:12;9.20;;;8.30;;
55210;SDS011;41082;52.822;6.666;2022-07-21T13:01:40;11.93;;;9.15;;
55210;SDS011;41082;52.822;6.666;2022-07-21T13:04:06;9.35;;;8.45;;
55210;SDS011;41082;52.822;6.666;2022-07-21T13:06:32;9.63;;;8.77;;
55210;SDS011;41082;52.822;6.666;2022-07-21T13:08:57;10.23;;;9.30;;
55210;SDS011;41082;52.822;6.666;2022-07-21T13:11:23;10.32;;;9.32;;
55210;SDS011;41082;52.822;6.666;2022-07-21T13:13:49;10.18;;;9.27;;
55210;SDS011;41082;52.822;6.666;2022-07-21T13:16:16;10.32;;;9.25;;
55210;SDS011;41082;52.822;6.666;2022-07-21T13:18:43;12.13;;;10.80;;
55210;SDS011;41082;52.822;6.666;2022-07-21T13:21:09;10.73;;;9.68;;
55210;SDS011;41082;52.822;6.666;2022-07-21T13:23:35;12.68;;;11.48;;
55210;SDS011;41082;52.822;6.666;2022-07-21T13:26:01;13.57;;;12.18;;
55210;SDS011;41082;52.822;6.666;2022-07-21T13:28:27;13.77;;;12.48;;
55210;SDS011;41082;52.822;6.666;2022-07-21T13:30:53;11.75;;;10.57;;
55210;SDS011;41082;52.822;6.666;2022-07-21T13:33:18;12.18;;;11.07;;
55210;SDS011;41082;52.822;6.666;2022-07-21T13:35:44;13.05;;;11.75;;
55210;SDS011;41082;52.822;6.666;2022-07-21T13:38:09;13.18;;;11.75;;
55210;SDS011;41082;52.822;6.666;2022-07-21T13:40:35;14.02;;;11.82;;
55210;SDS011;41082;52.822;6.666;2022-07-21T13:43:02;12.77;;;11.30;;
55210;SDS011;41082;52.822;6.666;2022-07-21T13:45:29;9.32;;;8.52;;
55210;SDS011;41082;52.822;6.666;2022-07-21T13:47:54;7.93;;;7.13;;
55210;SDS011;41082;52.822;6.666;2022-07-21T13:50:20;9.05;;;8.23;;
55210;SDS011;41082;52.822;6.666;2022-07-21T13:52:46;9.25;;;8.35;;
55210;SDS011;41082;52.822;6.666;2022-07-21T13:55:11;9.45;;;8.50;;
55210;SDS011;41082;52.822;6.666;2022-07-21T13:57:37;10.80;;;9.05;;
55210;SDS011;41082;52.822;6.666;2022-07-21T14:00:03;10.40;;;9.40;;
55210;SDS011;41082;52.822;6.666;2022-07-21T14:02:32;9.48;;;8.57;;
55210;SDS011;41082;52.822;6.666;2022-07-21T14:04:58;9.88;;;8.85;;
55210;SDS011;41082;52.822;6.666;2022-07-21T14:07:23;8.10;;;7.40;;
55210;SDS011;41082;52.822;6.666;2022-07-21T14:09:49;8.93;;;7.68;;
55210;SDS011;41082;52.822;6.666;2022-07-21T14:12:15;7.18;;;6.55;;
55210;SDS011;41082;52.822;6.666;2022-07-21T14:14:40;7.78;;;7.18;;
55210;SDS011;41082;52.822;6.666;2022-07-21T14:17:11;7.80;;;7.10;;
55210;SDS011;41082;52.822;6.666;2022-07-21T14:19:38;7.38;;;6.78;;
55210;SDS011;41082;52.822;6.666;2022-07-21T14:22:03;6.82;;;6.25;;
55210;SDS011;41082;52.822;6.666;2022-07-21T14:24:29;6.97;;;6.38;;
55210;SDS011;41082;52.822;6.666;2022-07-21T14:27:13;7.35;;;6.68;;
55210;SDS011;41082;52.822;6.666;2022-07-21T14:29:39;5.63;;;5.20;;
55210;SDS011;41082;52.822;6.666;2022-07-21T14:32:04;5.50;;;5.00;;
55210;SDS011;41082;52.822;6.666;2022-07-21T14:34:30;5.43;;;4.93;;
55210;SDS011;41082;52.822;6.666;2022-07-21T14:36:56;6.47;;;4.95;;
55210;SDS011;41082;52.822;6.666;2022-07-21T14:39:21;5.75;;;5.03;;
55210;SDS011;41082;52.822;6.666;2022-07-21T14:41:47;4.38;;;3.83;;
55210;SDS011;41082;52.822;6.666;2022-07-21T14:44:12;4.60;;;3.85;;
55210;SDS011;41082;52.822;6.666;2022-07-21T14:46:38;4.50;;;4.10;;
55210;SDS011;41082;52.822;6.666;2022-07-21T14:49:04;5.13;;;4.70;;
55210;SDS011;41082;52.822;6.666;2022-07-21T14:51:29;5.35;;;4.85;;